Time;durP1;ratioP1;P1;durP2;ratioP2;P2;SDS_P1;SDS_P2;PMS_P1;PMS_P2;Temp;Humidity;BMP_temperature;BMP_pressure;BME280_temperature;BME280_humidity;BME280_pressure;Samples;Min_cycle;Max_cycle;Signal;HPM_P1;HPM_P2
2022/10/27 00:01:51;;;;;;;7.47;3.65;;;13.40;99.90;;;;;;4990043;28;20042;-38
2022/10/27 00:04:17;;;;;;;8.73;3.80;;;13.40;99.90;;;;;;4990218;28;20042;-37
2022/10/27 00:06:43;;;;;;;6.85;2.90;;;13.50;99.90;;;;;;4990575;28;20034;-37
2022/10/27 00:09:08;;;;;;;5.18;3.20;;;13.50;99.90;;;;;;4989663;28;20050;-38
2022/10/27 00:11:34;;;;;;;9.90;3.13;;;13.50;99.90;;;;;;4989244;28;20038;-37
2022/10/27 00:14:00;;;;;;;5.57;2.88;;;13.60;99.90;;;;;;4991190;28;20479;-38
2022/10/27 00:16:25;;;;;;;7.28;2.95;;;13.60;99.90;;;;;;4989903;28;20042;-38
2022/10/27 00:18:51;;;;;;;10.80;3.13;;;13.60;99.90;;;;;;4990741;28;20045;-38
2022/10/27 00:21:19;;;;;;;5.78;2.70;;;13.60;99.90;;;;;;4989576;28;20480;-37
2022/10/27 00:23:49;;;;;;;6.40;3.00;;;13.60;99.90;;;;;;4988033;28;20520;-37
2022/10/27 00:26:16;;;;;;;6.55;3.10;;;13.60;99.90;;;;;;4988633;28;20503;-37
2022/10/27 00:28:42;;;;;;;5.95;2.90;;;13.60;99.90;;;;;;4987088;28;20205;-39
2022/10/27 00:31:13;;;;;;;7.75;2.70;;;13.60;99.90;;;;;;4988520;28;20145;-37
2022/10/27 00:33:40;;;;;;;5.38;3.35;;;13.60;99.90;;;;;;4985300;28;20096;-38
2022/10/27 00:36:14;;;;;;;6.65;2.90;;;13.60;99.90;;;;;;4988430;28;20538;-47
2022/10/27 00:38:40;;;;;;;8.00;3.83;;;13.60;99.90;;;;;;4989965;28;20144;-38
2022/10/27 00:41:13;;;;;;;11.82;4.00;;;13.50;99.90;;;;;;4987898;28;20524;-38
2022/10/27 00:43:39;;;;;;;8.35;3.63;;;13.60;99.90;;;;;;4988317;28;20588;-37
2022/10/27 00:46:38;;;;;;;7.63;3.53;;;13.60;99.90;;;;;;4987369;28;20508;-37
2022/10/27 00:49:14;;;;;;;7.70;2.72;;;13.60;99.90;;;;;;4989541;28;20054;-38
2022/10/27 00:51:44;;;;;;;7.55;2.85;;;13.60;99.90;;;;;;4984300;28;20050;-38
2022/10/27 00:54:11;;;;;;;6.28;3.05;;;13.60;99.90;;;;;;4983892;28;20046;-38
2022/10/27 00:56:38;;;;;;;7.72;2.60;;;13.60;99.90;;;;;;4989884;28;20504;-38
2022/10/27 00:59:04;;;;;;;6.93;2.83;;;13.60;99.90;;;;;;4988372;28;20053;-38
2022/10/27 01:01:31;;;;;;;9.93;3.58;;;13.60;99.90;;;;;;4983028;28;20118;-38
2022/10/27 01:03:57;;;;;;;11.63;3.50;;;13.70;99.90;;;;;;4985144;28;20047;-37
2022/10/27 01:06:23;;;;;;;5.68;2.70;;;13.70;99.90;;;;;;4986808;28;20042;-37
2022/10/27 01:08:50;;;;;;;5.72;2.67;;;13.70;99.90;;;;;;4986793;28;20516;-37
2022/10/27 01:11:16;;;;;;;9.93;3.90;;;13.80;99.90;;;;;;4981940;28;20054;-37
2022/10/27 01:13:41;;;;;;;6.57;3.22;;;13.80;99.90;;;;;;4987925;28;20034;-38
2022/10/27 01:17:00;;;;;;;8.05;2.90;;;13.80;99.90;;;;;;4980322;28;20109;-37
2022/10/27 01:20:09;;;;;;;7.15;2.95;;;13.80;99.90;;;;;;4950956;28;20061;-37
2022/10/27 01:22:56;;;;;;;9.98;3.65;;;13.80;99.90;;;;;;4936271;28;20582;-39
2022/10/27 01:25:39;;;;;;;6.30;2.80;;;13.80;99.90;;;;;;4986693;28;20052;-38
2022/10/27 01:28:26;;;;;;;6.95;2.45;;;13.80;99.90;;;;;;4979179;28;20097;-38
2022/10/27 01:31:17;;;;;;;7.05;3.75;;;13.90;99.90;;;;;;4977859;28;20069;-38
2022/10/27 01:34:22;;;;;;;8.38;3.42;;;13.90;99.90;;;;;;4985711;28;20180;-39
2022/10/27 01:36:54;;;;;;;6.05;3.17;;;13.90;99.90;;;;;;4989919;28;20035;-38
2022/10/27 01:39:40;;;;;;;8.03;3.00;;;13.90;99.90;;;;;;4987070;28;20052;-39
2022/10/27 01:42:18;;;;;;;5.10;2.63;;;13.80;99.90;;;;;;4990779;28;20050;-38
2022/10/27 01:44:48;;;;;;;7.82;3.40;;;13.80;99.90;;;;;;4989548;28;20091;-38
2022/10/27 01:47:15;;;;;;;5.40;2.75;;;13.80;99.90;;;;;;4991695;28;20042;-46
2022/10/27 01:49:42;;;;;;;10.30;3.45;;;13.80;99.90;;;;;;4990240;28;20038;-38
2022/10/27 01:52:39;;;;;;;8.70;3.50;;;13.80;99.90;;;;;;4988541;28;20046;-37
2022/10/27 01:55:11;;;;;;;6.55;3.10;;;13.80;99.90;;;;;;4986564;28;20049;-39
2022/10/27 01:57:55;;;;;;;6.65;2.83;;;13.80;99.90;;;;;;4984942;28;20495;-38
2022/10/27 02:00:21;;;;;;;5.38;2.92;;;13.80;99.90;;;;;;4988352;28;20046;-39
2022/10/27 02:02:54;;;;;;;9.57;2.58;;;13.80;99.90;;;;;;4988626;28;20510;-37
2022/10/27 02:05:33;;;;;;;8.63;3.53;;;13.80;99.90;;;;;;4992280;28;20128;-38
2022/10/27 02:08:08;;;;;;;7.68;3.55;;;13.70;99.90;;;;;;4990644;28;20034;-38
2022/10/27 02:10:52;;;;;;;8.05;3.83;;;13.80;99.90;;;;;;4989154;28;20531;-39
2022/10/27 02:13:18;;;;;;;6.97;2.60;;;13.70;99.90;;;;;;4991409;28;20045;-39
2022/10/27 02:15:56;;;;;;;6.88;3.13;;;13.70;99.90;;;;;;4985444;28;20399;-38
2022/10/27 02:18:29;;;;;;;7.40;2.78;;;13.70;99.90;;;;;;4985032;28;20042;-37
2022/10/27 02:21:08;;;;;;;7.13;3.40;;;13.60;99.90;;;;;;4989622;28;20045;-39
2022/10/27 02:23:35;;;;;;;9.00;3.13;;;13.60;99.90;;;;;;4993275;28;20116;-40
2022/10/27 02:26:00;;;;;;;9.30;3.60;;;13.60;99.90;;;;;;4984639;28;20117;-39
2022/10/27 02:28:32;;;;;;;11.88;4.05;;;13.60;99.90;;;;;;4987340;28;20197;-38
2022/10/27 02:30:59;;;;;;;7.40;3.60;;;13.60;99.90;;;;;;4987190;28;20050;-38
2022/10/27 02:33:25;;;;;;;7.35;3.80;;;13.50;99.90;;;;;;4989653;28;20050;-39
2022/10/27 02:35:52;;;;;;;9.15;3.67;;;13.60;99.90;;;;;;4987777;28;20042;-38
2022/10/27 02:38:18;;;;;;;9.00;3.95;;;13.50;99.90;;;;;;4988065;28;20117;-38
2022/10/27 02:40:44;;;;;;;6.43;3.63;;;13.50;99.90;;;;;;4991635;28;20109;-38
2022/10/27 02:43:09;;;;;;;7.95;3.83;;;13.50;99.90;;;;;;4987706;28;20046;-38
2022/10/27 02:45:35;;;;;;;9.27;4.70;;;13.50;99.90;;;;;;4988534;28;20051;-39
2022/10/27 02:48:00;;;;;;;11.27;4.28;;;13.50;99.90;;;;;;4988150;28;20113;-38
2022/10/27 02:50:26;;;;;;;9.40;3.97;;;13.50;99.90;;;;;;4989165;28;20030;-41
2022/10/27 02:52:52;;;;;;;8.07;4.18;;;13.50;99.90;;;;;;4988212;28;20030;-37
2022/10/27 02:55:17;;;;;;;12.90;4.22;;;13.50;99.90;;;;;;4987714;28;20177;-38
2022/10/27 02:57:45;;;;;;;10.20;4.25;;;13.50;99.90;;;;;;4989824;28;20046;-37
2022/10/27 03:00:11;;;;;;;7.15;3.80;;;13.50;99.90;;;;;;4990670;28;20046;-39
2022/10/27 03:02:36;;;;;;;6.93;3.95;;;13.50;99.90;;;;;;4982975;28;20046;-39
2022/10/27 03:05:02;;;;;;;11.10;4.47;;;13.40;99.90;;;;;;4992119;28;20490;-38
2022/10/27 03:07:28;;;;;;;10.50;4.70;;;13.40;99.90;;;;;;4990093;28;20160;-38
2022/10/27 03:09:53;;;;;;;9.75;4.03;;;13.40;99.90;;;;;;4988043;28;20042;-38
2022/10/27 03:12:19;;;;;;;8.07;4.22;;;13.30;99.90;;;;;;4992047;28;20068;-38
2022/10/27 03:14:45;;;;;;;8.43;3.75;;;13.30;99.90;;;;;;4987127;28;20046;-38
2022/10/27 03:17:10;;;;;;;7.43;3.80;;;13.30;99.90;;;;;;4983848;28;20061;-38
2022/10/27 03:19:36;;;;;;;9.70;3.83;;;13.30;99.90;;;;;;4989754;28;20045;-37
2022/10/27 03:22:02;;;;;;;8.10;3.88;;;13.20;99.90;;;;;;4991326;28;20433;-38
2022/10/27 03:24:27;;;;;;;10.73;4.88;;;13.20;99.90;;;;;;4988172;28;20532;-38
2022/10/27 03:26:53;;;;;;;9.23;4.38;;;13.20;99.90;;;;;;4984914;28;20120;-38
2022/10/27 03:29:19;;;;;;;10.05;4.50;;;13.20;99.90;;;;;;4982693;28;20049;-38
2022/10/27 03:31:44;;;;;;;8.63;4.28;;;13.20;99.90;;;;;;4986215;28;20061;-38
2022/10/27 03:34:10;;;;;;;6.38;3.30;;;13.20;99.90;;;;;;4986137;28;20053;-38
2022/10/27 03:36:36;;;;;;;7.18;3.67;;;13.20;99.90;;;;;;4985271;28;20042;-38
2022/10/27 03:39:01;;;;;;;7.55;4.03;;;13.10;99.90;;;;;;4988178;28;20046;-38
2022/10/27 03:41:27;;;;;;;10.00;3.97;;;13.10;99.90;;;;;;4986594;28;20416;-38
2022/10/27 03:43:53;;;;;;;9.40;4.50;;;13.10;99.90;;;;;;4988387;28;20034;-37
2022/10/27 03:46:18;;;;;;;11.98;4.40;;;13.10;99.90;;;;;;4987974;28;20121;-37
2022/10/27 03:48:44;;;;;;;9.45;4.28;;;13.00;99.90;;;;;;4982599;28;20504;-38
2022/10/27 03:51:11;;;;;;;9.00;4.75;;;13.00;99.90;;;;;;4980822;28;20460;-38
2022/10/27 03:53:36;;;;;;;10.57;4.63;;;13.00;99.90;;;;;;4989056;28;20080;-39
2022/10/27 03:56:02;;;;;;;11.23;4.60;;;13.00;99.90;;;;;;4989380;28;20082;-38
2022/10/27 03:58:28;;;;;;;6.60;3.90;;;13.00;99.90;;;;;;4986839;28;20105;-38
2022/10/27 04:00:59;;;;;;;8.40;4.05;;;13.00;99.90;;;;;;4985879;28;20070;-39
2022/10/27 04:03:24;;;;;;;8.75;4.50;;;13.00;99.90;;;;;;4984107;28;20038;-37
2022/10/27 04:05:50;;;;;;;9.43;4.43;;;13.00;99.90;;;;;;4989395;28;20128;-38
2022/10/27 04:08:16;;;;;;;13.27;4.85;;;13.00;99.90;;;;;;4986728;28;20480;-38
2022/10/27 04:10:41;;;;;;;9.45;4.63;;;13.00;99.90;;;;;;4989179;28;20113;-38
2022/10/27 04:13:07;;;;;;;7.20;4.05;;;13.00;99.90;;;;;;4983852;28;20072;-38
2022/10/27 04:15:33;;;;;;;9.77;4.38;;;13.00;99.90;;;;;;4986747;28;20034;-38
2022/10/27 04:17:59;;;;;;;10.23;4.15;;;13.00;99.90;;;;;;4980217;28;20039;-39
2022/10/27 04:20:26;;;;;;;7.20;4.43;;;13.00;99.90;;;;;;4986796;28;20057;-38
2022/10/27 04:22:55;;;;;;;8.27;4.40;;;13.00;99.90;;;;;;4987050;28;20042;-38
2022/10/27 04:25:21;;;;;;;8.98;5.15;;;13.00;99.90;;;;;;4983675;28;20185;-37
2022/10/27 04:27:46;;;;;;;10.85;4.95;;;13.00;99.90;;;;;;4984365;28;20117;-38
2022/10/27 04:30:12;;;;;;;7.38;4.50;;;13.00;99.90;;;;;;4987205;28;20046;-38
2022/10/27 04:32:38;;;;;;;11.00;4.25;;;13.00;99.90;;;;;;4986291;28;20053;-38
2022/10/27 04:35:05;;;;;;;11.80;4.78;;;13.10;99.90;;;;;;4983800;28;20044;-37
2022/10/27 04:37:30;;;;;;;9.85;4.75;;;13.10;99.90;;;;;;4987310;28;20054;-37
2022/10/27 04:39:56;;;;;;;8.68;4.57;;;13.10;99.90;;;;;;4983088;28;20533;-38
2022/10/27 04:42:22;;;;;;;8.52;4.80;;;13.10;99.90;;;;;;4988986;28;20046;-38
2022/10/27 04:44:47;;;;;;;7.07;3.97;;;13.10;99.90;;;;;;4987651;28;20048;-38
2022/10/27 04:47:13;;;;;;;8.95;4.40;;;13.10;99.90;;;;;;4988211;28;20132;-38
2022/10/27 04:49:39;;;;;;;9.65;4.50;;;13.10;99.90;;;;;;4983815;28;20050;-37
2022/10/27 04:52:04;;;;;;;11.77;5.60;;;13.10;99.90;;;;;;4984974;28;20061;-38
2022/10/27 04:54:30;;;;;;;9.82;4.63;;;13.10;99.90;;;;;;4987334;28;20042;-37
2022/10/27 04:56:55;;;;;;;11.80;4.93;;;13.10;99.90;;;;;;4986324;28;20048;-37
2022/10/27 04:59:21;;;;;;;7.10;4.68;;;13.10;99.90;;;;;;4986289;28;20566;-38
2022/10/27 05:01:47;;;;;;;10.35;5.32;;;13.10;99.90;;;;;;4982867;28;20038;-38
2022/10/27 05:04:12;;;;;;;14.77;5.68;;;13.10;99.90;;;;;;4983750;28;20085;-37
2022/10/27 05:06:38;;;;;;;10.68;5.72;;;13.10;99.90;;;;;;4986310;28;20085;-41
2022/10/27 05:09:04;;;;;;;7.68;5.10;;;13.10;99.90;;;;;;4985163;28;20128;-38
2022/10/27 05:11:29;;;;;;;12.35;5.15;;;13.10;99.90;;;;;;4988575;28;20042;-38
2022/10/27 05:13:55;;;;;;;11.65;5.53;;;13.10;99.90;;;;;;4987230;28;20060;-38
2022/10/27 05:16:21;;;;;;;13.25;5.70;;;13.20;99.90;;;;;;4994444;28;20052;-39
2022/10/27 05:18:46;;;;;;;8.88;5.53;;;13.20;99.90;;;;;;4988248;28;20042;-38
2022/10/27 05:21:13;;;;;;;9.93;5.28;;;13.20;99.90;;;;;;4988294;28;20118;-39
2022/10/27 05:23:38;;;;;;;8.27;5.43;;;13.20;99.90;;;;;;4986217;28;21646;-37
2022/10/27 05:26:04;;;;;;;12.82;5.85;;;13.20;99.90;;;;;;4987839;28;20451;-38
2022/10/27 05:28:30;;;;;;;11.77;6.30;;;13.20;99.90;;;;;;4989750;28;20042;-38
2022/10/27 05:30:59;;;;;;;9.73;5.25;;;13.20;99.90;;;;;;4990491;28;20081;-38
2022/10/27 05:33:26;;;;;;;10.40;5.95;;;13.10;99.90;;;;;;4990886;28;20132;-38
2022/10/27 05:35:52;;;;;;;10.52;5.45;;;13.10;99.90;;;;;;4982698;28;20460;-38
2022/10/27 05:38:18;;;;;;;11.15;6.10;;;13.20;99.90;;;;;;4984812;28;20113;-37
2022/10/27 05:40:44;;;;;;;11.93;5.65;;;13.20;99.90;;;;;;4983697;28;20145;-37
2022/10/27 05:43:09;;;;;;;8.60;5.20;;;13.20;99.90;;;;;;4991398;28;20113;-38
2022/10/27 05:45:35;;;;;;;10.43;5.07;;;13.20;99.90;;;;;;4991269;28;20042;-37
2022/10/27 05:48:04;;;;;;;9.77;5.05;;;13.20;99.90;;;;;;4984614;28;20147;-39
2022/10/27 05:50:30;;;;;;;9.43;5.63;;;13.20;99.90;;;;;;4981494;28;20042;-38
2022/10/27 05:52:56;;;;;;;9.77;4.45;;;13.20;99.90;;;;;;4987336;28;20045;-38
2022/10/27 05:55:23;;;;;;;7.13;4.18;;;13.20;99.90;;;;;;4980752;28;20057;-38
2022/10/27 05:57:57;;;;;;;11.52;4.93;;;13.20;99.90;;;;;;4986633;28;20046;-38
2022/10/27 06:00:24;;;;;;;10.38;5.20;;;13.20;99.90;;;;;;4989231;28;20073;-37
2022/10/27 06:02:50;;;;;;;9.23;4.85;;;13.20;99.90;;;;;;4981671;28;20047;-37
2022/10/27 06:05:16;;;;;;;7.80;3.58;;;13.20;99.90;;;;;;4986110;28;20093;-38
2022/10/27 06:07:42;;;;;;;8.18;4.22;;;13.20;99.90;;;;;;4985052;28;20039;-38
2022/10/27 06:10:08;;;;;;;8.43;4.05;;;13.30;99.90;;;;;;4978902;28;20528;-37
2022/10/27 06:12:34;;;;;;;10.05;4.13;;;13.30;99.90;;;;;;4982172;28;20035;-38
2022/10/27 06:14:59;;;;;;;9.32;4.57;;;13.20;99.90;;;;;;4987696;28;20050;-37
2022/10/27 06:17:25;;;;;;;16.45;4.10;;;13.20;99.90;;;;;;4985210;28;20061;-39
2022/10/27 06:19:51;;;;;;;8.70;3.75;;;13.30;99.90;;;;;;4984066;28;20043;-37
2022/10/27 06:22:16;;;;;;;8.38;3.75;;;13.30;99.90;;;;;;4981648;28;20079;-38
2022/10/27 06:24:42;;;;;;;8.90;3.75;;;13.30;99.90;;;;;;4982760;28;20043;-38
2022/10/27 06:27:07;;;;;;;13.00;4.10;;;13.30;99.90;;;;;;4988269;28;20034;-37
2022/10/27 06:29:33;;;;;;;8.43;3.53;;;13.30;99.90;;;;;;4985029;28;20415;-38
2022/10/27 06:31:59;;;;;;;7.15;3.65;;;13.30;99.90;;;;;;4984435;28;20475;-37
2022/10/27 06:34:24;;;;;;;9.70;4.22;;;13.30;99.90;;;;;;4984949;28;20046;-37
2022/10/27 06:36:50;;;;;;;6.57;4.05;;;13.30;99.90;;;;;;4984098;28;20437;-37
2022/10/27 06:39:15;;;;;;;7.00;3.45;;;13.40;99.90;;;;;;4977740;28;20508;-38
2022/10/27 06:41:41;;;;;;;8.95;4.07;;;13.30;99.90;;;;;;4989983;28;20117;-37
2022/10/27 06:44:07;;;;;;;6.43;3.72;;;13.40;99.90;;;;;;4987376;28;20440;-37
2022/10/27 06:46:33;;;;;;;8.07;4.55;;;13.40;99.90;;;;;;4989266;28;20520;-37
2022/10/27 06:49:00;;;;;;;8.23;3.95;;;13.40;99.90;;;;;;4991372;28;20047;-38
2022/10/27 06:51:25;;;;;;;9.32;4.03;;;13.40;99.90;;;;;;4991731;28;20049;-38
2022/10/27 06:53:51;;;;;;;7.43;3.70;;;13.40;99.90;;;;;;4986917;28;20045;-38
2022/10/27 06:56:18;;;;;;;8.90;3.88;;;13.40;99.90;;;;;;4985604;28;20042;-37
2022/10/27 06:58:47;;;;;;;10.73;3.63;;;13.40;99.90;;;;;;4988999;28;20050;-38
2022/10/27 07:01:12;;;;;;;7.15;3.95;;;13.50;99.90;;;;;;4988797;28;20124;-41
2022/10/27 07:03:38;;;;;;;9.43;4.13;;;13.50;99.90;;;;;;4987184;28;20058;-39
2022/10/27 07:06:04;;;;;;;10.43;3.65;;;13.50;99.90;;;;;;4988103;28;20045;-37
2022/10/27 07:08:30;;;;;;;7.38;3.60;;;13.60;99.90;;;;;;4987168;28;20042;-38
2022/10/27 07:10:56;;;;;;;8.02;3.97;;;13.50;99.90;;;;;;4983653;28;20056;-37
2022/10/27 07:13:21;;;;;;;8.57;3.85;;;13.60;99.90;;;;;;4976213;28;20145;-38
2022/10/27 07:15:47;;;;;;;8.63;4.00;;;13.60;99.90;;;;;;4990386;28;20097;-37
2022/10/27 07:18:13;;;;;;;8.55;3.55;;;13.60;99.90;;;;;;4985242;28;20448;-38
2022/10/27 07:20:39;;;;;;;7.45;3.67;;;13.60;99.90;;;;;;4988363;28;20878;-38
2022/10/27 07:23:06;;;;;;;11.65;4.00;;;13.60;99.90;;;;;;4988951;28;20034;-37
2022/10/27 07:25:32;;;;;;;6.25;3.72;;;13.60;99.90;;;;;;4983526;28;20038;-37
2022/10/27 07:28:00;;;;;;;7.93;3.60;;;13.70;99.90;;;;;;4987460;28;20488;-38
2022/10/27 07:30:28;;;;;;;7.13;3.47;;;13.70;99.90;;;;;;4978484;28;20041;-37
2022/10/27 07:32:55;;;;;;;7.90;4.07;;;13.70;99.90;;;;;;4984354;28;21022;-39
2022/10/27 07:35:21;;;;;;;8.48;3.88;;;13.70;99.90;;;;;;4985157;28;20042;-38
2022/10/27 07:37:47;;;;;;;9.73;3.78;;;13.80;99.90;;;;;;4989015;28;20042;-37
2022/10/27 07:40:15;;;;;;;10.23;3.53;;;13.80;99.90;;;;;;4971793;28;20046;-39
2022/10/27 07:42:49;;;;;;;9.35;4.28;;;13.90;99.90;;;;;;4982704;28;20034;-39
2022/10/27 07:45:17;;;;;;;10.48;4.18;;;13.90;99.90;;;;;;4978292;28;20573;-38
2022/10/27 07:47:50;;;;;;;9.77;4.03;;;14.00;99.90;;;;;;4980977;28;20038;-39
2022/10/27 07:50:21;;;;;;;7.75;4.38;;;14.00;99.90;;;;;;4981151;28;20487;-38
2022/10/27 07:52:49;;;;;;;9.15;4.30;;;14.10;99.90;;;;;;4987059;28;20101;-38
2022/10/27 07:55:16;;;;;;;9.57;4.93;;;14.10;99.90;;;;;;4988710;28;20393;-38
2022/10/27 07:57:43;;;;;;;11.10;4.57;;;14.20;99.90;;;;;;4983551;28;20042;-37
2022/10/27 08:00:14;;;;;;;9.23;4.30;;;14.20;99.90;;;;;;4989788;28;20403;-38
2022/10/27 08:02:41;;;;;;;8.90;4.03;;;14.30;99.90;;;;;;4987312;28;20046;-38
2022/10/27 08:05:08;;;;;;;9.60;3.65;;;14.30;99.90;;;;;;4985119;28;20051;-38
2022/10/27 08:07:34;;;;;;;11.10;3.55;;;14.40;99.90;;;;;;4976478;28;20039;-38
2022/10/27 08:10:00;;;;;;;11.30;3.95;;;14.40;99.90;;;;;;4983496;28;20030;-38
2022/10/27 08:12:26;;;;;;;7.68;3.55;;;14.40;99.90;;;;;;4976843;28;20491;-38
2022/10/27 08:14:52;;;;;;;8.95;3.13;;;14.40;99.90;;;;;;4981318;28;20143;-39
2022/10/27 08:17:17;;;;;;;10.75;4.38;;;14.40;99.90;;;;;;4984543;28;20043;-38
2022/10/27 08:19:43;;;;;;;8.20;3.65;;;14.50;99.90;;;;;;4976457;28;20439;-38
2022/10/27 08:22:09;;;;;;;10.35;3.35;;;14.50;99.90;;;;;;4984426;28;20109;-38
2022/10/27 08:24:34;;;;;;;8.15;3.53;;;14.50;99.90;;;;;;4988526;28;20508;-45
2022/10/27 08:27:00;;;;;;;10.45;3.15;;;14.50;99.90;;;;;;4989041;28;20117;-39
2022/10/27 08:29:26;;;;;;;10.98;4.07;;;14.50;99.90;;;;;;4985615;28;20038;-38
2022/10/27 08:31:52;;;;;;;9.82;3.40;;;14.60;99.90;;;;;;4980187;28;20049;-38
2022/10/27 08:34:18;;;;;;;9.55;3.67;;;14.70;99.90;;;;;;4986292;28;20513;-38
2022/10/27 08:36:43;;;;;;;7.35;3.53;;;14.80;99.90;;;;;;4983649;28;20045;-38
2022/10/27 08:39:10;;;;;;;6.95;3.65;;;14.90;99.90;;;;;;4986903;28;20046;-40
2022/10/27 08:42:03;;;;;;;8.70;3.97;;;14.90;99.90;;;;;;4981999;28;20121;-38
2022/10/27 08:44:42;;;;;;;10.57;3.55;;;15.00;99.90;;;;;;4978968;28;20035;-37
2022/10/27 08:47:14;;;;;;;9.57;4.30;;;15.10;99.90;;;;;;4985652;28;20133;-39
2022/10/27 08:49:45;;;;;;;6.60;3.58;;;15.20;99.90;;;;;;4987904;28;20052;-38
2022/10/27 08:52:18;;;;;;;9.63;3.65;;;15.30;99.90;;;;;;4980748;28;20614;-38
2022/10/27 08:54:50;;;;;;;9.98;3.40;;;15.40;99.90;;;;;;4983639;28;20133;-38
2022/10/27 08:57:24;;;;;;;8.65;2.85;;;15.50;99.90;;;;;;4988517;28;20527;-37
2022/10/27 08:59:54;;;;;;;8.38;3.00;;;15.60;99.90;;;;;;4986216;28;20038;-38
2022/10/27 09:02:26;;;;;;;8.95;3.08;;;15.70;99.90;;;;;;4989272;28;20031;-38
2022/10/27 09:05:15;;;;;;;7.97;3.08;;;15.80;99.90;;;;;;4985520;28;20449;-38
2022/10/27 09:07:59;;;;;;;7.47;2.83;;;15.90;99.90;;;;;;4983130;28;20026;-39
2022/10/27 09:10:37;;;;;;;5.35;2.63;;;16.00;99.90;;;;;;4983913;28;20134;-39
2022/10/27 09:13:35;;;;;;;7.32;2.65;;;16.20;99.90;;;;;;4977985;28;20062;-38
2022/10/27 09:16:05;;;;;;;6.32;2.55;;;16.20;99.90;;;;;;4959371;28;20046;-38
2022/10/27 09:18:40;;;;;;;5.57;2.60;;;16.30;99.90;;;;;;4984552;28;20042;-38
2022/10/27 09:21:19;;;;;;;8.68;2.75;;;16.30;99.90;;;;;;4981401;28;20047;-37
2022/10/27 09:23:55;;;;;;;9.93;3.15;;;16.40;99.90;;;;;;4983572;28;20042;-38
2022/10/27 09:26:31;;;;;;;5.57;2.78;;;16.40;99.90;;;;;;4983070;28;20645;-37
2022/10/27 09:29:00;;;;;;;7.90;2.45;;;16.50;99.90;;;;;;4980788;28;20043;-38
2022/10/27 09:31:41;;;;;;;5.93;2.42;;;16.60;99.90;;;;;;4984743;28;20524;-39
2022/10/27 09:34:36;;;;;;;5.95;2.38;;;16.70;99.90;;;;;;4994616;28;20065;-40
2022/10/27 09:37:12;;;;;;;6.97;2.22;;;16.80;99.90;;;;;;4984362;28;20126;-38
2022/10/27 09:39:45;;;;;;;7.25;2.35;;;16.80;99.90;;;;;;4985387;28;20047;-39
2022/10/27 09:42:10;;;;;;;5.95;2.08;;;16.90;99.90;;;;;;4985527;28;20377;-38
2022/10/27 09:44:36;;;;;;;3.58;1.60;;;16.90;99.90;;;;;;4984316;28;20049;-38
2022/10/27 09:47:02;;;;;;;5.30;1.50;;;17.00;99.90;;;;;;4984308;28;20053;-37
2022/10/27 09:49:38;;;;;;;7.35;1.73;;;17.10;99.90;;;;;;4989097;28;20046;-38
2022/10/27 09:52:19;;;;;;;4.25;1.50;;;17.20;99.90;;;;;;4978637;28;20416;-39
2022/10/27 09:54:52;;;;;;;4.10;1.60;;;17.30;99.90;;;;;;4979551;28;20053;-38
2022/10/27 09:57:20;;;;;;;8.18;1.73;;;17.40;99.90;;;;;;4990839;28;20042;-38
2022/10/27 09:59:53;;;;;;;5.00;1.40;;;17.50;99.90;;;;;;4991652;28;20049;-38
2022/10/27 10:02:29;;;;;;;4.65;1.23;;;17.70;99.90;;;;;;4990492;28;20138;-39
2022/10/27 10:04:55;;;;;;;4.93;1.75;;;17.80;99.90;;;;;;4991216;28;20424;-39
2022/10/27 10:07:39;;;;;;;5.38;1.25;;;17.90;99.90;;;;;;4986881;28;20046;-38
2022/10/27 10:10:17;;;;;;;5.03;1.40;;;18.00;99.90;;;;;;4991785;28;20414;-37
2022/10/27 10:12:43;;;;;;;3.80;1.30;;;18.00;99.90;;;;;;4976361;28;20034;-38
2022/10/27 10:15:09;;;;;;;2.88;1.42;;;18.00;99.90;;;;;;4985069;28;20046;-39
2022/10/27 10:17:35;;;;;;;5.72;1.60;;;18.00;99.90;;;;;;4990578;28;20046;-39
2022/10/27 10:20:02;;;;;;;5.40;1.30;;;18.00;99.90;;;;;;4986719;28;20035;-38
2022/10/27 10:22:30;;;;;;;4.55;1.33;;;18.00;99.90;;;;;;4992494;28;20030;-38
2022/10/27 10:25:18;;;;;;;5.32;1.70;;;18.00;99.90;;;;;;4987600;28;20084;-38
2022/10/27 10:27:48;;;;;;;6.68;1.30;;;18.00;99.90;;;;;;4981657;28;20046;-40
2022/10/27 10:30:18;;;;;;;3.83;0.95;;;18.00;99.90;;;;;;4990885;28;20100;-40
2022/10/27 10:32:50;;;;;;;3.97;1.17;;;18.00;99.90;;;;;;4990127;28;20132;-38
2022/10/27 10:35:39;;;;;;;4.38;1.50;;;18.10;99.90;;;;;;4988331;28;20568;-38
2022/10/27 10:38:27;;;;;;;3.92;1.30;;;18.20;99.90;;;;;;4990317;28;20141;-38
2022/10/27 10:41:12;;;;;;;3.45;1.30;;;18.20;99.90;;;;;;4987908;28;20060;-38
2022/10/27 10:43:39;;;;;;;6.07;1.77;;;18.30;99.90;;;;;;4991870;28;20051;-38
2022/10/27 10:46:15;;;;;;;3.40;1.25;;;18.30;99.90;;;;;;4982100;28;20053;-38
2022/10/27 10:48:55;;;;;;;5.63;1.23;;;18.40;99.90;;;;;;4975764;28;20121;-38
2022/10/27 10:51:30;;;;;;;4.15;1.10;;;18.30;99.90;;;;;;4990011;28;20042;-37
2022/10/27 10:54:08;;;;;;;4.85;1.23;;;18.40;99.90;;;;;;4985254;28;20504;-38
2022/10/27 10:56:36;;;;;;;4.13;0.80;;;18.40;99.90;;;;;;4992379;28;20046;-40
2022/10/27 10:59:05;;;;;;;3.95;1.20;;;18.50;99.90;;;;;;4986778;28;20082;-39
2022/10/27 11:02:15;;;;;;;7.32;1.10;;;18.50;99.90;;;;;;4987083;28;20443;-38
2022/10/27 11:04:46;;;;;;;3.92;1.30;;;18.50;99.90;;;;;;4988653;28;20038;-38
2022/10/27 11:07:31;;;;;;;4.15;1.13;;;18.50;99.90;;;;;;4985595;28;20034;-37
2022/10/27 11:10:05;;;;;;;6.75;1.30;;;18.40;99.90;;;;;;4982251;28;20052;-40
2022/10/27 11:12:55;;;;;;;3.97;1.00;;;18.40;99.90;;;;;;4987879;28;20125;-39
2022/10/27 11:15:39;;;;;;;2.60;1.05;;;18.40;99.90;;;;;;4982139;28;20069;-37
2022/10/27 11:18:07;;;;;;;5.55;0.98;;;18.40;99.90;;;;;;4986792;28;20711;-39
2022/10/27 11:20:35;;;;;;;4.60;1.38;;;18.40;99.90;;;;;;4998470;28;20108;-38
2022/10/27 11:23:05;;;;;;;4.45;1.10;;;18.40;99.90;;;;;;4984126;28;20066;-38
2022/10/27 11:25:33;;;;;;;3.20;1.00;;;18.40;99.90;;;;;;4987502;28;20034;-37
2022/10/27 11:28:14;;;;;;;4.78;1.33;;;18.40;99.90;;;;;;4985877;28;20038;-37
2022/10/27 11:30:59;;;;;;;6.50;1.30;;;18.50;99.90;;;;;;4989017;28;20042;-38
2022/10/27 11:33:40;;;;;;;6.20;1.02;;;18.50;99.90;;;;;;4987881;28;20048;-38
2022/10/27 11:36:53;;;;;;;3.65;1.00;;;18.60;99.90;;;;;;4984867;28;20054;-37
2022/10/27 11:39:27;;;;;;;;;;;18.70;99.90;;;;;;4979903;28;20489;-37
2022/10/27 11:42:17;;;;;;;4.13;0.90;;;18.80;99.50;;;;;;4980204;28;19918;-40
2022/10/27 11:44:57;;;;;;;2.20;0.80;;;18.90;99.90;;;;;;4990604;28;20037;-38
2022/10/27 11:47:37;;;;;;;2.75;0.75;;;19.00;99.90;;;;;;4989549;28;20069;-38
2022/10/27 11:50:09;;;;;;;4.75;1.30;;;19.00;99.90;;;;;;4990762;28;20043;-39
2022/10/27 11:52:42;;;;;;;2.92;0.90;;;19.00;99.90;;;;;;4985958;28;20034;-38
2022/10/27 11:55:11;;;;;;;2.50;0.60;;;18.90;99.90;;;;;;4991679;28;20557;-37
2022/10/27 11:57:48;;;;;;;4.15;0.80;;;19.10;99.90;;;;;;4990301;28;20543;-38
2022/10/27 12:00:26;;;;;;;2.38;0.77;;;19.30;99.30;;;;;;4989790;28;20051;-39
2022/10/27 12:03:13;;;;;;;7.40;1.05;;;19.40;98.50;;;;;;4988717;28;20034;-37
2022/10/27 12:06:07;;;;;;;5.70;0.90;;;19.30;98.10;;;;;;4986758;28;20058;-39
2022/10/27 12:08:48;;;;;;;5.00;0.90;;;19.30;97.40;;;;;;4981489;28;20116;-38
2022/10/27 12:11:29;;;;;;;3.10;0.60;;;19.20;98.30;;;;;;4977471;28;20469;-41
2022/10/27 12:14:19;;;;;;;2.72;0.60;;;19.10;98.50;;;;;;4985278;28;20034;-45
2022/10/27 12:16:54;;;;;;;4.22;0.90;;;19.10;98.50;;;;;;4991480;28;20042;-40
2022/10/27 12:19:34;;;;;;;2.53;0.77;;;19.10;98.90;;;;;;4984994;28;20500;-38
2022/10/27 12:22:09;;;;;;;4.40;1.25;;;19.20;98.70;;;;;;4988554;28;20381;-38
2022/10/27 12:24:42;;;;;;;4.82;0.70;;;19.20;98.10;;;;;;4987604;28;20050;-38
2022/10/27 12:27:19;;;;;;;9.15;0.98;;;19.40;98.10;;;;;;4987009;28;20544;-38
2022/10/27 12:29:53;;;;;;;3.10;0.82;;;19.50;97.70;;;;;;4990396;28;20522;-39
2022/10/27 12:32:32;;;;;;;3.30;0.80;;;19.60;97.60;;;;;;4990837;28;20077;-38
2022/10/27 12:35:11;;;;;;;5.68;1.23;;;19.60;97.50;;;;;;4988455;28;20106;-38
2022/10/27 12:38:02;;;;;;;2.95;0.70;;;19.80;97.40;;;;;;4987830;28;20049;-37
2022/10/27 12:41:08;;;;;;;7.25;0.98;;;20.10;95.80;;;;;;4952911;28;20062;-38
2022/10/27 12:43:48;;;;;;;3.63;0.60;;;20.50;96.10;;;;;;4985310;28;20137;-38
2022/10/27 12:46:47;;;;;;;2.55;0.90;;;20.90;95.30;;;;;;4987146;28;20104;-38
2022/10/27 12:49:46;;;;;;;4.75;0.90;;;21.60;93.80;;;;;;4981802;28;20050;-38
2022/10/27 12:52:24;;;;;;;4.53;0.80;;;22.60;91.70;;;;;;4979011;28;20394;-38
2022/10/27 12:55:12;;;;;;;2.50;0.80;;;23.30;90.30;;;;;;4987537;28;20034;-38
2022/10/27 12:57:56;;;;;;;3.38;1.10;;;23.50;84.00;;;;;;4982900;28;20047;-39
2022/10/27 13:00:23;;;;;;;3.22;0.77;;;23.70;85.80;;;;;;4988113;28;20484;-38
2022/10/27 13:03:07;;;;;;;4.65;0.60;;;23.60;85.90;;;;;;4990302;28;20042;-39
2022/10/27 13:05:52;;;;;;;4.68;0.80;;;23.00;86.10;;;;;;4982796;28;20039;-38
2022/10/27 13:08:51;;;;;;;3.40;0.63;;;22.60;88.10;;;;;;4983366;28;20033;-38